Time;durP1;ratioP1;P1;durP2;ratioP2;P2;SDS_P1;SDS_P2;PMS_P1;PMS_P2;Temp;Humidity;BMP_temperature;BMP_pressure;BME280_temperature;BME280_humidity;BME280_pressure;Samples;Min_cycle;Max_cycle;Signal;HPM_P1;HPM_P2
2022/06/03 00:01:49;;;;;;;4.27;4.07;;;20.40;48.10;;;;;;20740;6847;117711;-84
2022/06/03 00:04:28;;;;;;;3.80;3.60;;;20.20;48.10;;;;;;20719;6853;117265;-85
2022/06/03 00:07:10;;;;;;;4.40;4.10;;;19.80;48.50;;;;;;20501;6853;307393;-84
2022/06/03 00:09:59;;;;;;;4.33;4.13;;;19.90;49.00;;;;;;20760;6838;119699;-84
2022/06/03 00:12:51;;;;;;;4.70;4.40;;;19.70;48.80;;;;;;20562;6838;307952;-85
2022/06/03 00:15:24;;;;;;;4.32;4.03;;;19.90;49.10;;;;;;20575;6838;307059;-85
2022/06/03 00:18:12;;;;;;;4.83;4.63;;;20.10;48.70;;;;;;20768;6838;117465;-85
2022/06/03 00:21:04;;;;;;;4.17;3.97;;;19.80;48.50;;;;;;20783;6838;180657;-86
2022/06/03 00:23:39;;;;;;;4.63;4.33;;;19.50;49.00;;;;;;20789;6838;117396;-84
2022/06/03 00:26:38;;;;;;;4.13;3.93;;;19.10;49.30;;;;;;20777;6838;117567;-86
2022/06/03 00:29:30;;;;;;;4.57;4.27;;;18.90;49.70;;;;;;20802;6838;117373;-85
2022/06/03 00:31:55;;;;;;;4.47;4.27;;;18.80;50.00;;;;;;20772;6838;117246;-85
2022/06/03 00:34:31;;;;;;;4.80;4.47;;;18.60;50.10;;;;;;20771;6838;117329;-86
2022/06/03 00:37:09;;;;;;;4.40;4.10;;;18.60;50.30;;;;;;20797;6838;118227;-84
2022/06/03 00:39:41;;;;;;;4.37;4.17;;;18.50;50.40;;;;;;20556;6838;307034;-85
2022/06/03 00:42:34;;;;;;;4.40;4.13;;;18.90;51.20;;;;;;20782;6838;122308;-85
2022/06/03 00:45:32;;;;;;;4.70;4.50;;;19.00;50.40;;;;;;20568;6838;278035;-84
2022/06/03 00:48:04;;;;;;;5.00;4.70;;;19.30;50.00;;;;;;20584;6838;278984;-85
2022/06/03 00:50:39;;;;;;;4.40;4.20;;;19.70;49.10;;;;;;20545;6838;308729;-85
2022/06/03 00:53:08;;;;;;;4.00;3.80;;;19.90;48.70;;;;;;20775;6838;119544;-84
2022/06/03 00:55:47;;;;;;;4.90;4.50;;;19.80;48.70;;;;;;20581;6838;308103;-86
2022/06/03 00:58:33;;;;;;;4.50;4.20;;;19.80;49.20;;;;;;20553;6836;334228;-84
2022/06/03 01:01:15;;;;;;;4.60;4.33;;;20.00;48.80;;;;;;20589;6837;307503;-84
2022/06/03 01:04:01;;;;;;;4.40;4.10;;;20.10;48.50;;;;;;20762;6838;119294;-85
2022/06/03 01:06:27;;;;;;;4.70;4.30;;;19.80;48.50;;;;;;20789;6838;119255;-85
2022/06/03 01:09:08;;;;;;;4.60;4.40;;;19.40;49.00;;;;;;20560;6838;342043;-84
2022/06/03 01:12:01;;;;;;;4.50;4.20;;;19.40;49.60;;;;;;20785;6838;117539;-85
2022/06/03 01:14:49;;;;;;;4.03;3.83;;;19.00;49.90;;;;;;20775;6838;117323;-85
2022/06/03 01:17:35;;;;;;;4.87;4.67;;;19.00;49.70;;;;;;20579;6838;307544;-86
2022/06/03 01:20:07;;;;;;;4.70;4.40;;;19.20;50.10;;;;;;20775;6838;117447;-85
2022/06/03 01:23:12;;;;;;;5.40;4.90;;;19.10;49.80;;;;;;20740;6838;119017;-87
2022/06/03 01:25:38;;;;;;;4.73;4.43;;;18.90;50.00;;;;;;20586;6838;278547;-85
2022/06/03 01:28:26;;;;;;;4.60;4.40;;;19.10;50.40;;;;;;20802;6838;118873;-85
2022/06/03 01:31:01;;;;;;;4.90;4.70;;;19.00;50.00;;;;;;19871;6838;336661;-85
2022/06/03 01:34:00;;;;;;;4.63;4.43;;;19.20;49.90;;;;;;20765;6838;117311;-84
2022/06/03 01:36:25;;;;;;;4.90;4.60;;;19.10;49.80;;;;;;20756;6838;118385;-84
2022/06/03 01:39:17;;;;;;;5.10;4.80;;;18.80;50.00;;;;;;20537;6838;337023;-84
2022/06/03 01:41:46;;;;;;;4.87;4.57;;;18.90;50.50;;;;;;20801;6838;119580;-84
2022/06/03 01:44:31;;;;;;;5.23;4.87;;;18.80;50.30;;;;;;20556;6838;278846;-85
2022/06/03 01:47:33;;;;;;;4.60;4.40;;;18.90;50.60;;;;;;20767;6838;117490;-84
2022/06/03 01:50:05;;;;;;;4.70;4.40;;;18.80;50.40;;;;;;20582;6838;312902;-84
2022/06/03 01:53:11;;;;;;;4.87;4.57;;;19.00;50.70;;;;;;20555;6838;307057;-84
2022/06/03 01:55:42;;;;;;;4.83;4.30;;;19.20;50.30;;;;;;20794;6838;117204;-85
2022/06/03 01:58:28;;;;;;;4.47;4.27;;;18.70;50.60;;;;;;20779;6838;118586;-84
2022/06/03 02:01:17;;;;;;;4.47;4.17;;;18.70;50.60;;;;;;20772;6838;118032;-85
2022/06/03 02:03:57;;;;;;;4.80;4.50;;;18.50;51.00;;;;;;20774;6838;117188;-85
2022/06/03 02:06:48;;;;;;;5.40;5.00;;;18.30;51.10;;;;;;20546;6838;278051;-85
2022/06/03 02:09:24;;;;;;;5.10;4.80;;;18.60;51.60;;;;;;20769;6836;117308;-85
2022/06/03 02:12:06;;;;;;;5.37;5.07;;;18.80;51.40;;;;;;20545;6837;293597;-86
2022/06/03 02:14:41;;;;;;;4.67;4.47;;;18.80;51.40;;;;;;20741;6837;130161;-85
2022/06/03 02:17:20;;;;;;;5.40;5.03;;;18.70;51.00;;;;;;20581;6838;306562;-85
2022/06/03 02:20:05;;;;;;;5.30;5.00;;;18.90;51.10;;;;;;20275;6838;307026;-84
2022/06/03 02:22:57;;;;;;;5.77;5.37;;;19.20;50.60;;;;;;20743;6838;141966;-84
2022/06/03 02:26:03;;;;;;;5.37;5.07;;;19.10;51.20;;;;;;20136;6838;307464;-84
2022/06/03 02:28:33;;;;;;;4.60;4.30;;;19.10;50.60;;;;;;20784;6838;120160;-84
2022/06/03 02:31:13;;;;;;;4.40;4.10;;;18.90;50.50;;;;;;20753;6838;117447;-84
2022/06/03 02:33:57;;;;;;;4.18;3.87;;;18.60;50.80;;;;;;20563;6838;336799;-84
2022/06/03 02:36:49;;;;;;;4.20;3.97;;;18.80;51.30;;;;;;20546;6838;307634;-85
2022/06/03 02:39:34;;;;;;;4.30;4.10;;;19.20;50.80;;;;;;20780;6838;120454;-84
2022/06/03 02:42:20;;;;;;;3.93;3.73;;;19.00;50.80;;;;;;20537;6838;290147;-84
2022/06/03 02:44:56;;;;;;;3.87;3.67;;;19.00;50.80;;;;;;20788;6838;117411;-85
2022/06/03 02:48:01;;;;;;;4.00;3.73;;;18.80;50.70;;;;;;20746;6838;117153;-86
2022/06/03 02:50:56;;;;;;;3.70;3.50;;;18.60;51.00;;;;;;20755;6838;117961;-85
2022/06/03 02:53:42;;;;;;;4.53;4.13;;;18.20;51.50;;;;;;20779;6838;117268;-85
2022/06/03 02:56:30;;;;;;;3.80;3.60;;;18.20;51.50;;;;;;20780;6838;117267;-85
2022/06/03 02:59:06;;;;;;;3.73;3.53;;;18.00;51.50;;;;;;20772;6838;117458;-84
2022/06/03 03:01:48;;;;;;;4.20;4.00;;;17.90;51.60;;;;;;20534;6838;307946;-85
2022/06/03 03:04:43;;;;;;;4.18;3.97;;;18.10;52.00;;;;;;20572;6838;336590;-84
2022/06/03 03:07:29;;;;;;;4.30;3.90;;;18.60;51.40;;;;;;20786;6838;118407;-84
2022/06/03 03:10:30;;;;;;;5.00;4.70;;;18.40;51.00;;;;;;20575;6838;277459;-86
2022/06/03 03:13:16;;;;;;;4.30;4.10;;;18.60;51.20;;;;;;20772;6838;118465;-82
2022/06/03 03:15:55;;;;;;;4.60;4.30;;;18.40;51.10;;;;;;20535;6838;278471;-84
2022/06/03 03:18:47;;;;;;;4.47;4.17;;;18.40;51.70;;;;;;20731;6838;120923;-82
2022/06/03 03:21:32;;;;;;;4.20;4.00;;;18.30;51.10;;;;;;20545;6836;340129;-82
2022/06/03 03:24:04;;;;;;;4.03;3.83;;;18.50;51.10;;;;;;20563;6837;321218;-82
2022/06/03 03:26:50;;;;;;;3.87;3.67;;;18.70;50.80;;;;;;20722;6837;147117;-83
2022/06/03 03:29:39;;;;;;;4.17;3.97;;;18.50;50.80;;;;;;20750;6838;119879;-84
2022/06/03 03:32:07;;;;;;;4.60;4.40;;;18.20;51.10;;;;;;20546;6838;277587;-82
2022/06/03 03:35:00;;;;;;;5.03;4.73;;;18.40;51.10;;;;;;20527;6838;310859;-81
2022/06/03 03:37:42;;;;;;;4.85;4.65;;;18.60;50.50;;;;;;20572;6838;309769;-81
2022/06/03 03:40:47;;;;;;;5.50;5.20;;;18.80;50.20;;;;;;20518;6838;308418;-85
2022/06/03 03:43:16;;;;;;;5.20;4.90;;;18.80;49.90;;;;;;20566;6838;307632;-82
2022/06/03 03:46:21;;;;;;;4.77;4.57;;;18.80;50.00;;;;;;20564;6838;312848;-82
2022/06/03 03:48:47;;;;;;;5.37;5.07;;;18.90;49.90;;;;;;20555;6838;307575;-82
2022/06/03 03:51:12;;;;;;;5.30;5.00;;;19.00;49.60;;;;;;20514;6838;279933;-82
2022/06/03 03:53:47;;;;;;;5.37;4.97;;;19.00;49.40;;;;;;20780;6838;116271;-81
2022/06/03 03:56:33;;;;;;;5.50;5.20;;;18.70;49.70;;;;;;20562;6838;308032;-81
2022/06/03 03:59:09;;;;;;;5.53;5.23;;;18.60;50.00;;;;;;20761;6838;116470;-81
2022/06/03 04:01:53;;;;;;;4.55;4.35;;;18.30;50.20;;;;;;20540;6838;278478;-82
2022/06/03 04:04:28;;;;;;;5.40;5.10;;;18.40;51.00;;;;;;20549;6838;277479;-83
2022/06/03 04:07:04;;;;;;;5.30;5.00;;;18.60;50.60;;;;;;20537;6838;278520;-83
2022/06/03 04:09:52;;;;;;;5.40;4.97;;;18.80;50.40;;;;;;20776;6838;119304;-84
2022/06/03 04:12:48;;;;;;;4.63;4.43;;;18.10;50.80;;;;;;20750;6838;117287;-83
2022/06/03 04:15:34;;;;;;;5.60;5.20;;;18.30;50.90;;;;;;20419;6838;280477;-83
2022/06/03 04:18:13;;;;;;;5.10;4.80;;;18.30;50.90;;;;;;20777;6838;117491;-82
2022/06/03 04:21:03;;;;;;;5.53;5.23;;;18.20;50.80;;;;;;20263;6838;291219;-83
2022/06/03 04:23:39;;;;;;;4.85;4.50;;;18.40;51.10;;;;;;20087;6838;337536;-86
2022/06/03 04:26:33;;;;;;;4.83;4.63;;;18.70;50.70;;;;;;20747;6838;123190;-82
2022/06/03 04:28:59;;;;;;;5.10;4.80;;;18.60;50.70;;;;;;20759;6838;116823;-85
2022/06/03 04:31:48;;;;;;;4.90;4.62;;;18.40;51.00;;;;;;20198;6838;277635;-86
2022/06/03 04:34:23;;;;;;;4.50;4.20;;;18.60;51.40;;;;;;20741;6837;120278;-85
2022/06/03 04:37:05;;;;;;;4.80;4.50;;;18.60;51.10;;;;;;20658;6838;121238;-85
2022/06/03 04:39:32;;;;;;;5.20;4.80;;;18.50;51.20;;;;;;19950;6848;309465;-86
2022/06/03 04:42:37;;;;;;;4.60;4.30;;;18.70;51.10;;;;;;20379;6857;341178;-85
2022/06/03 04:45:36;;;;;;;5.30;5.00;;;19.00;50.50;;;;;;20712;6856;117537;-86
2022/06/03 04:48:15;;;;;;;4.77;4.43;;;18.90;50.40;;;;;;20800;6828;117280;-86
2022/06/03 04:51:14;;;;;;;4.73;4.33;;;18.40;51.30;;;;;;20773;6828;117272;-85
2022/06/03 04:53:47;;;;;;;5.33;5.03;;;18.30;51.60;;;;;;20756;6843;117915;-85
2022/06/03 04:56:42;;;;;;;5.33;5.03;;;18.30;51.60;;;;;;20693;6843;118507;-85
2022/06/03 04:59:41;;;;;;;5.07;4.77;;;18.30;51.80;;;;;;20521;6839;308469;-85
2022/06/03 05:02:41;;;;;;;5.37;4.97;;;18.70;52.00;;;;;;20545;6839;308513;-85
2022/06/03 05:05:12;;;;;;;4.40;4.20;;;19.10;50.80;;;;;;20115;6839;118563;-86
2022/06/03 05:07:47;;;;;;;4.60;4.40;;;19.00;50.60;;;;;;20669;6854;117648;-85
2022/06/03 05:10:53;;;;;;;5.20;4.90;;;18.80;51.10;;;;;;20442;6854;306486;-85
2022/06/03 05:13:24;;;;;;;4.80;4.50;;;18.90;51.20;;;;;;20541;6847;336944;-86
2022/06/03 05:16:10;;;;;;;5.00;4.70;;;19.40;50.70;;;;;;20534;6850;305786;-88
2022/06/03 05:18:48;;;;;;;5.68;5.30;;;19.70;50.30;;;;;;20505;6850;307135;-86
2022/06/03 05:21:22;;;;;;;5.40;5.00;;;20.00;49.50;;;;;;20450;6850;288733;-87
2022/06/03 05:24:03;;;;;;;4.93;4.67;;;20.10;49.40;;;;;;20709;6849;117525;-84
2022/06/03 05:26:36;;;;;;;5.00;4.70;;;19.70;49.90;;;;;;20707;6849;123027;-85
2022/06/03 05:29:38;;;;;;;4.70;4.30;;;19.70;49.90;;;;;;20696;6863;118766;-85
2022/06/03 05:32:37;;;;;;;5.47;5.17;;;19.50;50.40;;;;;;20535;6849;309419;-86
2022/06/03 05:35:27;;;;;;;5.47;5.10;;;19.80;50.50;;;;;;20741;6848;117910;-83
2022/06/03 05:38:02;;;;;;;4.27;4.07;;;19.80;50.50;;;;;;20785;6848;67855;-86
2022/06/03 05:40:34;;;;;;;4.72;4.50;;;19.70;50.60;;;;;;20530;6848;309929;-85
2022/06/03 05:43:09;;;;;;;4.70;4.50;;;19.90;50.80;;;;;;20751;6848;117570;-84
2022/06/03 05:46:01;;;;;;;4.70;4.50;;;19.90;50.50;;;;;;20496;6857;278440;-84
2022/06/03 05:48:30;;;;;;;5.15;4.75;;;20.10;51.30;;;;;;19529;7184;348201;-83
2022/06/03 05:51:12;;;;;;;4.85;4.55;;;20.40;50.10;;;;;;20081;6845;309555;-83
2022/06/03 05:53:44;;;;;;;4.80;4.60;;;20.70;49.80;;;;;;20766;6845;117852;-83
2022/06/03 05:56:35;;;;;;;4.73;4.53;;;20.60;49.80;;;;;;20749;6845;117770;-84
2022/06/03 05:59:07;;;;;;;4.77;4.47;;;20.40;50.00;;;;;;20767;6845;117447;-85
2022/06/03 06:01:47;;;;;;;4.57;4.27;;;20.30;50.20;;;;;;20713;6845;117422;-86
2022/06/03 06:07:24;;;;;;;4.37;4.07;;;20.60;50.50;;;;;;20511;6845;304806;-86
2022/06/03 06:09:50;;;;;;;4.62;4.40;;;21.30;49.60;;;;;;20526;6845;308997;-86
2022/06/03 06:12:55;;;;;;;4.27;4.07;;;21.80;48.70;;;;;;20509;6845;300765;-86
2022/06/03 06:15:50;;;;;;;4.30;4.00;;;22.60;47.50;;;;;;20760;6845;117188;-86
2022/06/03 06:18:19;;;;;;;3.83;3.63;;;23.10;47.90;;;;;;20750;6845;117286;-86
2022/06/03 06:20:52;;;;;;;4.13;3.93;;;23.50;48.20;;;;;;20752;6845;118153;-83
2022/06/03 06:23:17;;;;;;;4.50;4.13;;;23.90;47.90;;;;;;20787;6845;117260;-84
2022/06/03 06:25:51;;;;;;;4.57;4.33;;;24.40;47.40;;;;;;20538;6845;308445;-86
2022/06/03 06:28:41;;;;;;;4.60;4.30;;;25.40;43.90;;;;;;20484;6845;279766;-88
2022/06/03 06:31:24;;;;;;;4.00;3.60;;;26.30;41.40;;;;;;20546;6845;307503;-89
2022/06/03 06:34:16;;;;;;;4.35;3.92;;;27.10;40.00;;;;;;20554;6845;309073;-87
2022/06/03 06:36:45;;;;;;;4.20;3.90;;;27.60;38.40;;;;;;20577;6845;316470;-85
2022/06/03 06:39:14;;;;;;;3.67;3.47;;;27.90;38.20;;;;;;20832;6845;116346;-85
2022/06/03 06:42:01;;;;;;;3.97;3.77;;;27.70;39.20;;;;;;20796;6845;116493;-85
2022/06/03 06:44:36;;;;;;;3.87;3.67;;;27.50;40.10;;;;;;20789;6845;121095;-87
2022/06/03 06:47:22;;;;;;;4.77;4.50;;;27.50;40.80;;;;;;20779;6845;117488;-85
2022/06/03 06:50:01;;;;;;;5.12;4.80;;;27.50;40.60;;;;;;20554;6845;338705;-84
2022/06/03 06:52:40;;;;;;;4.75;4.37;;;29.00;36.20;;;;;;20522;6845;309381;-83
2022/06/03 06:55:19;;;;;;;3.53;3.33;;;29.10;36.90;;;;;;20363;6843;118212;-83
2022/06/03 06:57:45;;;;;;;3.87;3.57;;;29.10;36.90;;;;;;20769;6845;117065;-83
2022/06/03 07:00:24;;;;;;;4.63;4.10;;;29.10;37.90;;;;;;20552;6845;280206;-83
2022/06/03 07:03:02;;;;;;;4.22;3.92;;;29.40;36.40;;;;;;20541;6845;337119;-87
2022/06/03 07:05:41;;;;;;;4.00;3.80;;;29.90;36.00;;;;;;20736;6845;117300;-86
2022/06/03 07:08:33;;;;;;;4.10;3.70;;;29.80;36.40;;;;;;20511;6845;310218;-87
2022/06/03 07:11:09;;;;;;;4.07;3.73;;;29.90;36.10;;;;;;20745;6845;118353;-85
2022/06/03 07:13:48;;;;;;;4.33;3.93;;;29.80;36.70;;;;;;20739;6845;119413;-86
2022/06/03 07:22:14;;;;;;;4.00;3.80;;;29.50;37.20;;;;;;20537;6845;295513;-89
2022/06/03 07:25:20;;;;;;;4.35;3.95;;;29.90;36.30;;;;;;20499;6845;308020;-86
2022/06/03 07:28:06;;;;;;;3.93;3.67;;;29.90;36.30;;;;;;20748;6845;117220;-87
2022/06/03 07:30:31;;;;;;;4.17;3.87;;;29.50;36.50;;;;;;20720;6845;117778;-87
2022/06/03 07:33:06;;;;;;;4.30;4.10;;;29.10;37.10;;;;;;20743;6845;118133;-94
2022/06/03 07:35:31;;;;;;;4.20;4.00;;;28.80;37.40;;;;;;20731;6845;117334;-87
2022/06/03 07:38:01;;;;;;;4.13;3.83;;;28.50;38.10;;;;;;20751;6845;121258;-87
2022/06/03 07:40:32;;;;;;;3.80;3.50;;;28.20;38.40;;;;;;20497;6845;309687;-87
2022/06/03 07:43:01;;;;;;;4.33;4.03;;;28.30;39.70;;;;;;20507;6845;279049;-87
2022/06/03 07:45:29;;;;;;;3.80;3.50;;;28.60;39.00;;;;;;20472;6860;338101;-87
2022/06/03 07:47:55;;;;;;;3.53;3.40;;;28.90;38.20;;;;;;20692;6860;117826;-87
2022/06/03 07:50:21;;;;;;;4.37;4.00;;;28.80;38.00;;;;;;20437;6856;318082;-87
2022/06/03 07:52:46;;;;;;;6.27;5.77;;;28.90;38.20;;;;;;20497;6856;305751;-87
2022/06/03 07:55:11;;;;;;;8.45;7.05;;;29.20;38.20;;;;;;20492;6856;307973;-87
2022/06/03 07:57:37;;;;;;;7.70;7.00;;;29.40;37.70;;;;;;20703;6856;117448;-87
2022/06/03 08:00:04;;;;;;;5.63;4.53;;;29.10;37.70;;;;;;20701;6864;118524;-89
2022/06/03 08:02:29;;;;;;;4.73;4.43;;;29.10;37.40;;;;;;20465;6861;295750;-86
2022/06/03 08:05:08;;;;;;;3.90;3.60;;;29.10;38.00;;;;;;20719;6851;117995;-87
2022/06/03 08:13:04;;;;;;;4.43;4.13;;;29.20;37.70;;;;;;20551;6841;308963;-90
2022/06/03 08:15:30;;;;;;;4.07;3.85;;;29.60;37.00;;;;;;20757;6845;117509;-90
2022/06/03 08:17:56;;;;;;;4.20;3.70;;;29.30;37.90;;;;;;20754;6842;121156;-87
2022/06/03 08:20:22;;;;;;;4.50;3.70;;;29.30;37.70;;;;;;20523;6842;308042;-86
2022/06/03 08:22:47;;;;;;;4.20;3.80;;;29.50;37.60;;;;;;20541;6842;307450;-87
2022/06/03 08:25:13;;;;;;;4.23;4.03;;;29.90;37.60;;;;;;20758;6842;117648;-89
2022/06/03 08:27:39;;;;;;;3.77;3.57;;;29.90;37.10;;;;;;20701;6842;117218;-87
2022/06/03 08:30:07;;;;;;;5.47;3.77;;;29.80;37.30;;;;;;20545;6842;307601;-86
2022/06/03 08:32:34;;;;;;;3.80;3.57;;;30.00;37.20;;;;;;20736;6842;117588;-85
2022/06/03 08:35:00;;;;;;;4.03;3.83;;;30.00;36.70;;;;;;20763;6842;117334;-84
2022/06/03 08:37:29;;;;;;;4.10;3.80;;;29.90;36.60;;;;;;20552;6842;279792;-84
2022/06/03 08:39:56;;;;;;;4.07;3.40;;;29.90;36.60;;;;;;20544;6842;306681;-86
2022/06/03 08:42:33;;;;;;;3.80;3.60;;;30.10;37.30;;;;;;20506;6842;279777;-89
2022/06/03 08:45:12;;;;;;;3.70;3.50;;;30.20;36.80;;;;;;20551;6842;309258;-85
2022/06/03 08:47:38;;;;;;;3.80;3.60;;;30.40;36.70;;;;;;20416;6842;308279;-86
2022/06/03 08:50:10;;;;;;;3.80;3.60;;;30.50;36.20;;;;;;20735;6842;117264;-87
2022/06/03 08:52:45;;;;;;;3.93;3.73;;;30.20;36.10;;;;;;20732;6842;120852;-86
2022/06/03 08:55:44;;;;;;;4.00;3.80;;;30.00;36.90;;;;;;20732;6842;117159;-85
2022/06/03 08:58:16;;;;;;;3.80;3.60;;;29.70;37.00;;;;;;20543;6842;308029;-87
2022/06/03 09:00:42;;;;;;;4.00;3.80;;;30.00;36.90;;;;;;20509;6842;309755;-86
2022/06/03 09:03:08;;;;;;;4.20;3.67;;;30.40;36.50;;;;;;20749;6842;122819;-86
2022/06/03 09:05:50;;;;;;;4.00;3.70;;;30.30;36.10;;;;;;20529;6842;307534;-87
2022/06/03 09:08:16;;;;;;;3.77;3.57;;;30.30;35.90;;;;;;20194;6842;120019;-87
2022/06/03 09:10:41;;;;;;;5.50;3.95;;;30.20;36.40;;;;;;20507;6842;336637;-85
2022/06/03 09:13:10;;;;;;;3.87;3.67;;;30.20;36.70;;;;;;20538;6842;307458;-87
2022/06/03 09:15:35;;;;;;;3.80;3.47;;;30.40;36.70;;;;;;20743;6842;117300;-86
2022/06/03 09:18:18;;;;;;;4.07;3.67;;;30.10;36.80;;;;;;20754;6842;117307;-87
2022/06/03 09:20:47;;;;;;;3.77;3.57;;;30.10;36.70;;;;;;20734;6841;125708;-86
2022/06/03 09:23:12;;;;;;;4.27;4.07;;;30.00;37.40;;;;;;20703;6850;117944;-86
2022/06/03 09:25:38;;;;;;;3.92;3.62;;;29.90;37.30;;;;;;20747;6835;117405;-88
2022/06/03 09:28:05;;;;;;;4.33;3.93;;;30.10;37.20;;;;;;20534;6835;280679;-89
2022/06/03 09:30:31;;;;;;;4.12;3.83;;;30.10;37.20;;;;;;20506;6840;341424;-91
2022/06/03 09:32:56;;;;;;;4.23;4.03;;;30.70;36.20;;;;;;20544;6836;308282;-88
2022/06/03 09:35:22;;;;;;;4.37;3.97;;;30.70;36.20;;;;;;20555;6836;278786;-86
2022/06/03 09:37:48;;;;;;;4.00;3.80;;;30.80;36.30;;;;;;20539;6840;279527;-88
2022/06/03 09:40:16;;;;;;;3.70;3.50;;;31.00;35.90;;;;;;20736;6840;117203;-87
2022/06/03 09:42:49;;;;;;;7.23;4.03;;;30.90;36.40;;;;;;20731;6840;117533;-88
2022/06/03 09:45:20;;;;;;;4.23;3.93;;;30.80;36.90;;;;;;20719;6840;117267;-90
2022/06/03 09:47:40;;;;;;;9.93;9.33;;;30.70;37.00;;;;;;20532;6840;278318;-90
2022/06/03 09:50:06;;;;;;;5.83;5.43;;;30.80;36.50;;;;;;20512;6840;310920;-88
2022/06/03 09:52:32;;;;;;;4.33;3.93;;;31.20;37.00;;;;;;20738;6838;119404;-89
2022/06/03 09:54:58;;;;;;;4.43;4.13;;;31.30;36.80;;;;;;20765;6838;117447;-90
2022/06/03 09:57:26;;;;;;;4.15;3.85;;;31.10;36.80;;;;;;20540;6838;279113;-89
2022/06/03 10:00:12;;;;;;;5.27;4.37;;;31.30;36.40;;;;;;20735;6840;117326;-90
2022/06/03 10:02:38;;;;;;;4.07;3.70;;;31.40;37.00;;;;;;20516;6840;311964;-89
2022/06/03 10:05:03;;;;;;;3.80;3.53;;;31.40;37.70;;;;;;20747;6839;118287;-88
2022/06/03 10:07:30;;;;;;;4.20;3.60;;;31.80;37.10;;;;;;20541;6839;342857;-93
2022/06/03 10:12:50;;;;;;;3.90;3.57;;;32.20;36.60;;;;;;20736;6838;117229;-89
2022/06/03 10:18:01;;;;;;;3.73;3.53;;;32.50;36.40;;;;;;20548;6836;279403;-90
2022/06/03 10:20:26;;;;;;;4.07;3.67;;;32.70;35.50;;;;;;20520;6836;310496;-89
2022/06/03 10:22:52;;;;;;;4.03;3.73;;;32.90;35.00;;;;;;20564;6836;338543;-88
2022/06/03 10:25:18;;;;;;;3.33;3.13;;;33.00;33.80;;;;;;20768;6836;118570;-89
2022/06/03 10:27:43;;;;;;;3.60;3.30;;;32.80;34.20;;;;;;20559;6836;322893;-88
2022/06/03 10:30:09;;;;;;;3.40;3.20;;;32.80;34.90;;;;;;20540;6834;337038;-88
2022/06/03 10:32:36;;;;;;;3.50;3.30;;;32.80;34.50;;;;;;20537;6835;281069;-88
2022/06/03 10:35:03;;;;;;;3.70;3.40;;;33.00;34.60;;;;;;20781;6835;117790;-91
2022/06/03 10:37:29;;;;;;;3.53;3.33;;;33.00;34.20;;;;;;20557;6835;307758;-88
2022/06/03 10:39:55;;;;;;;3.37;3.10;;;32.90;33.60;;;;;;20569;6835;336416;-89
2022/06/03 10:42:20;;;;;;;3.87;3.10;;;33.00;34.30;;;;;;20541;6835;306413;-88
2022/06/03 10:44:45;;;;;;;3.47;3.17;;;33.20;34.00;;;;;;20785;6835;117297;-93
2022/06/03 10:47:17;;;;;;;3.83;3.53;;;33.20;33.70;;;;;;20559;6835;322471;-86
2022/06/03 10:49:51;;;;;;;3.40;3.10;;;33.20;33.90;;;;;;20563;6835;309324;-86
2022/06/03 11:03:26;;;;;;;3.50;3.30;;;33.00;34.10;;;;;;20562;6835;349578;-88
2022/06/03 11:05:51;;;;;;;3.37;3.17;;;33.30;34.50;;;;;;20546;6835;292841;-88
2022/06/03 11:08:19;;;;;;;3.67;3.37;;;33.60;33.90;;;;;;20572;6836;307256;-91
2022/06/03 11:10:43;;;;;;;3.33;3.12;;;33.70;32.80;;;;;;20529;6836;306719;-87
2022/06/03 11:13:08;;;;;;;3.83;3.00;;;33.90;32.40;;;;;;20745;6836;117847;-87
2022/06/03 11:15:40;;;;;;;3.43;3.17;;;33.60;32.70;;;;;;20553;6836;277759;-90
2022/06/03 11:18:20;;;;;;;3.60;3.30;;;33.50;33.80;;;;;;20555;6836;278136;-91
2022/06/03 11:20:46;;;;;;;3.20;3.03;;;33.50;33.00;;;;;;20555;6836;278113;-88
2022/06/03 11:23:13;;;;;;;3.70;3.50;;;33.40;32.60;;;;;;20773;6836;120820;-89
2022/06/03 11:25:49;;;;;;;3.70;3.40;;;33.00;33.00;;;;;;20561;6836;336558;-92
2022/06/03 11:28:21;;;;;;;3.95;3.55;;;32.90;34.40;;;;;;20556;6836;307568;-92
2022/06/03 11:30:48;;;;;;;3.80;3.50;;;32.80;36.00;;;;;;20557;6836;278169;-91
2022/06/03 11:33:19;;;;;;;4.82;3.55;;;32.60;37.40;;;;;;20553;6836;307897;-90
2022/06/03 11:35:51;;;;;;;3.90;3.50;;;32.40;39.50;;;;;;20544;6836;281236;-89
2022/06/03 11:38:17;;;;;;;3.50;3.30;;;32.30;40.30;;;;;;20550;6836;277979;-89
2022/06/03 11:40:43;;;;;;;3.73;3.43;;;32.20;40.30;;;;;;20523;6836;277711;-89
2022/06/03 11:43:14;;;;;;;3.77;3.57;;;32.20;39.30;;;;;;20762;6834;116312;-90
2022/06/03 11:45:47;;;;;;;3.73;3.43;;;32.10;37.70;;;;;;20258;6835;305330;-93
2022/06/03 11:48:16;;;;;;;3.40;3.20;;;32.00;37.60;;;;;;20526;6835;307086;-92
2022/06/03 11:50:42;;;;;;;3.67;3.37;;;32.20;37.40;;;;;;20512;6835;337554;-90
2022/06/03 11:53:07;;;;;;;4.00;3.70;;;32.30;36.20;;;;;;20753;6835;118304;-91
2022/06/03 11:55:32;;;;;;;3.60;3.30;;;32.20;36.30;;;;;;20556;6835;308066;-88
2022/06/03 11:58:18;;;;;;;3.40;3.30;;;32.20;36.70;;;;;;20780;6835;123045;-88
2022/06/03 12:00:43;;;;;;;3.43;3.23;;;32.00;36.70;;;;;;20005;6840;278430;-90
2022/06/03 12:03:30;;;;;;;3.53;3.33;;;32.00;36.80;;;;;;20540;6840;324954;-89
2022/06/03 12:05:57;;;;;;;3.70;3.40;;;32.10;37.20;;;;;;20736;6840;117650;-90
2022/06/03 12:08:36;;;;;;;4.20;3.43;;;31.90;36.90;;;;;;20746;6830;117398;-91
2022/06/03 12:11:08;;;;;;;3.93;3.60;;;31.70;37.30;;;;;;19777;6853;119613;-90
2022/06/03 12:13:33;;;;;;;4.00;3.37;;;31.40;37.50;;;;;;20501;6853;278861;-90
2022/06/03 12:16:02;;;;;;;3.70;3.40;;;31.50;37.60;;;;;;20696;6853;117382;-92
2022/06/03 12:18:31;;;;;;;3.70;3.50;;;31.50;37.90;;;;;;20424;6861;307457;-89
2022/06/03 12:20:57;;;;;;;3.70;3.40;;;31.60;37.40;;;;;;20487;6861;278541;-89
2022/06/03 12:23:22;;;;;;;3.67;3.43;;;31.80;36.30;;;;;;20683;6861;117397;-90
2022/06/03 12:25:49;;;;;;;3.28;3.10;;;31.80;37.10;;;;;;20502;6861;279772;-88
2022/06/03 12:28:24;;;;;;;3.63;3.43;;;31.80;37.20;;;;;;20702;6861;118246;-88
2022/06/03 12:31:19;;;;;;;3.80;3.60;;;31.80;37.00;;;;;;20473;6861;338955;-91
2022/06/03 12:33:58;;;;;;;3.70;3.40;;;31.90;36.70;;;;;;20509;6861;279933;-91
2022/06/03 12:36:40;;;;;;;3.80;3.50;;;32.00;36.50;;;;;;20763;6861;116790;-96
2022/06/03 12:39:32;;;;;;;3.70;3.50;;;31.40;37.30;;;;;;20725;6861;116234;-91
2022/06/03 12:42:07;;;;;;;3.50;3.30;;;31.40;36.60;;;;;;20469;6861;309584;-90
2022/06/03 12:44:49;;;;;;;3.60;3.30;;;31.40;36.70;;;;;;20512;6849;340967;-91
2022/06/03 12:47:18;;;;;;;3.80;3.50;;;31.60;36.60;;;;;;20668;6864;117409;-92
2022/06/03 12:49:43;;;;;;;3.55;3.35;;;31.30;36.90;;;;;;20546;6847;278760;-94
2022/06/03 12:52:12;;;;;;;3.77;3.50;;;31.20;37.80;;;;;;20780;6847;68411;-89
2022/06/03 12:55:01;;;;;;;3.60;3.40;;;31.00;37.90;;;;;;20460;6833;309013;-91
2022/06/03 12:57:50;;;;;;;3.53;3.43;;;30.90;37.40;;;;;;20782;6833;119152;-93
2022/06/03 13:00:18;;;;;;;4.67;3.33;;;30.70;38.00;;;;;;20561;6833;306750;-89
2022/06/03 13:02:53;;;;;;;3.63;3.30;;;30.70;39.80;;;;;;20753;6833;118732;-88
2022/06/03 13:05:26;;;;;;;3.70;3.40;;;30.60;39.70;;;;;;20777;6833;117462;-91
2022/06/03 13:07:54;;;;;;;3.90;3.37;;;30.40;40.30;;;;;;20784;6833;117308;-91
2022/06/03 13:10:19;;;;;;;3.67;3.47;;;30.20;40.60;;;;;;20767;6833;117588;-90
2022/06/03 13:12:47;;;;;;;3.80;3.60;;;30.20;40.60;;;;;;20470;6867;295871;-91
2022/06/03 13:15:16;;;;;;;3.90;3.70;;;30.20;40.60;;;;;;20751;6838;119149;-91
2022/06/03 13:20:40;;;;;;;4.20;3.80;;;30.10;40.70;;;;;;20527;6845;281499;-90
2022/06/03 13:23:22;;;;;;;3.75;3.50;;;30.20;40.50;;;;;;20546;6834;307582;-92
2022/06/03 13:29:13;;;;;;;3.83;3.53;;;30.50;39.70;;;;;;20576;6834;278050;-93
2022/06/03 13:31:41;;;;;;;3.97;3.67;;;30.50;39.80;;;;;;20716;6834;66875;-92
2022/06/03 13:34:10;;;;;;;4.95;4.00;;;30.10;40.40;;;;;;20594;6834;308088;-89
2022/06/03 13:36:52;;;;;;;4.47;4.07;;;30.00;42.60;;;;;;20766;6834;121022;-92
2022/06/03 13:39:24;;;;;;;4.50;4.20;;;29.60;43.00;;;;;;20101;6834;120158;-89
2022/06/03 13:44:51;;;;;;;4.67;4.37;;;29.20;47.00;;;;;;20762;6834;117449;-89
2022/06/03 13:47:17;;;;;;;4.43;4.13;;;29.00;47.00;;;;;;20794;6834;117252;-89
2022/06/03 13:49:45;;;;;;;4.75;4.45;;;28.80;47.20;;;;;;20579;6834;282692;-91
2022/06/03 13:52:14;;;;;;;4.30;4.10;;;28.90;47.50;;;;;;20529;6834;323465;-90
2022/06/03 13:54:36;;;;;;;4.45;4.15;;;29.00;47.40;;;;;;20534;6834;278010;-90
2022/06/03 13:57:08;;;;;;;4.50;4.10;;;29.30;46.70;;;;;;20772;6834;117877;-88
2022/06/03 13:59:34;;;;;;;4.22;3.92;;;29.10;46.00;;;;;;20553;6834;307587;-88
2022/06/03 14:02:00;;;;;;;4.10;3.80;;;29.20;44.60;;;;;;20555;6834;307921;-87
2022/06/03 14:04:30;;;;;;;3.90;3.70;;;29.20;44.10;;;;;;20549;6832;308470;-88
2022/06/03 14:06:57;;;;;;;4.10;3.70;;;29.30;43.70;;;;;;20774;6833;118216;-90